Time;durP1;ratioP1;P1;durP2;ratioP2;P2;SDS_P1;SDS_P2;PMS_P1;PMS_P2;Temp;Humidity;BMP_temperature;BMP_pressure;BME280_temperature;BME280_humidity;BME280_pressure;Samples;Min_cycle;Max_cycle;Signal;HPM_P1;HPM_P2
2023/01/15 00:00:59;;;;;;;1.27;1.10;;;11.50;80.80;;;;;;5076480;28;20035;-87
2023/01/15 00:03:25;;;;;;;1.50;1.05;;;11.50;80.80;;;;;;5077056;28;20028;-87
2023/01/15 00:05:50;;;;;;;1.85;1.10;;;11.50;80.70;;;;;;5058791;28;20055;-88
2023/01/15 00:08:16;;;;;;;1.33;1.10;;;11.50;80.70;;;;;;5079835;28;20082;-86
2023/01/15 00:10:42;;;;;;;1.38;1.05;;;11.50;80.70;;;;;;5061239;28;20030;-86
2023/01/15 00:13:08;;;;;;;0.93;0.90;;;11.50;80.70;;;;;;5077108;28;20366;-88
2023/01/15 00:15:34;;;;;;;1.15;1.05;;;11.50;80.80;;;;;;5079618;28;20052;-86
2023/01/15 00:17:59;;;;;;;1.58;1.20;;;11.40;80.70;;;;;;5084452;28;20054;-85
2023/01/15 00:20:25;;;;;;;1.75;1.17;;;11.40;80.70;;;;;;5042214;28;20040;-86
2023/01/15 00:22:51;;;;;;;1.75;1.08;;;11.40;80.70;;;;;;5067315;28;20476;-87
2023/01/15 00:28:01;;;;;;;1.20;1.10;;;11.40;80.70;;;;;;5092811;28;20031;-86
2023/01/15 00:30:27;;;;;;;1.65;1.20;;;11.40;80.70;;;;;;5058823;28;20039;-87
2023/01/15 00:32:53;;;;;;;1.95;1.20;;;11.30;80.70;;;;;;5059816;28;20028;-85
2023/01/15 00:35:22;;;;;;;1.20;1.10;;;11.30;80.70;;;;;;5057700;28;20028;-86
2023/01/15 00:37:48;;;;;;;1.85;1.13;;;11.30;80.80;;;;;;5075990;28;20024;-85
2023/01/15 00:40:17;;;;;;;1.13;1.00;;;11.30;80.70;;;;;;5082429;28;20032;-85
2023/01/15 00:42:43;;;;;;;1.63;1.10;;;11.30;80.80;;;;;;5080679;28;20031;-85
2023/01/15 00:45:10;;;;;;;1.85;1.30;;;11.20;80.70;;;;;;5071749;28;20031;-86
2023/01/15 00:47:38;;;;;;;1.13;1.08;;;11.30;80.80;;;;;;5067878;28;20119;-86
2023/01/15 00:50:06;;;;;;;2.00;1.10;;;11.30;80.80;;;;;;5085194;28;20123;-85
2023/01/15 00:52:31;;;;;;;1.23;1.00;;;11.20;80.70;;;;;;5080359;28;20524;-85
2023/01/15 00:54:57;;;;;;;1.25;1.00;;;11.20;80.70;;;;;;5097132;28;20112;-88
2023/01/15 00:57:23;;;;;;;1.67;1.13;;;11.20;80.80;;;;;;5073276;28;20376;-85
2023/01/15 00:59:49;;;;;;;1.15;1.10;;;11.20;80.80;;;;;;5085682;28;20024;-85
2023/01/15 01:02:15;;;;;;;1.73;1.10;;;11.20;80.80;;;;;;5067132;28;21968;-86
2023/01/15 01:04:40;;;;;;;1.95;1.27;;;11.20;80.80;;;;;;5060045;28;20392;-88
2023/01/15 01:07:06;;;;;;;1.70;1.13;;;11.20;80.80;;;;;;5057960;28;20020;-85
2023/01/15 01:09:32;;;;;;;2.78;1.63;;;11.20;80.80;;;;;;5057971;28;21263;-85
2023/01/15 01:11:58;;;;;;;1.33;1.10;;;11.20;80.80;;;;;;5031024;28;20036;-89
2023/01/15 01:14:23;;;;;;;1.88;1.50;;;11.10;80.80;;;;;;5068538;28;20028;-85
2023/01/15 01:16:49;;;;;;;1.75;1.15;;;11.10;80.80;;;;;;5032601;28;20127;-84
2023/01/15 01:19:18;;;;;;;2.10;1.20;;;11.10;80.90;;;;;;5058956;28;20097;-85
2023/01/15 01:21:45;;;;;;;1.98;1.20;;;11.10;80.90;;;;;;5066985;28;20077;-86
2023/01/15 01:24:14;;;;;;;2.03;1.40;;;11.10;80.90;;;;;;5067544;28;21665;-85
2023/01/15 01:26:42;;;;;;;2.40;1.52;;;11.00;80.80;;;;;;5094006;28;21199;-87
2023/01/15 01:29:11;;;;;;;1.58;1.20;;;11.10;80.90;;;;;;5092133;28;20056;-86
2023/01/15 01:31:37;;;;;;;3.28;1.30;;;11.10;80.90;;;;;;5056623;28;20028;-85
2023/01/15 01:34:03;;;;;;;1.83;1.20;;;11.00;80.80;;;;;;5074292;28;20821;-84
2023/01/15 01:36:31;;;;;;;2.15;1.23;;;11.00;80.80;;;;;;5064883;28;20111;-84
2023/01/15 01:38:58;;;;;;;2.53;1.30;;;11.00;80.80;;;;;;5093050;28;20028;-84
2023/01/15 01:41:24;;;;;;;2.92;1.40;;;11.00;80.80;;;;;;5095196;28;20035;-85
2023/01/15 01:43:58;;;;;;;1.20;1.10;;;11.00;80.80;;;;;;5078891;28;20115;-85
2023/01/15 01:46:26;;;;;;;2.10;1.30;;;11.00;80.80;;;;;;5084295;28;20020;-85
2023/01/15 01:48:57;;;;;;;1.75;1.30;;;11.00;80.80;;;;;;5084503;28;20402;-85
2023/01/15 01:51:30;;;;;;;4.38;1.30;;;11.00;80.90;;;;;;5081330;28;20563;-85
2023/01/15 01:53:59;;;;;;;2.15;1.23;;;10.90;80.80;;;;;;5080797;28;20036;-85
2023/01/15 01:56:25;;;;;;;1.73;1.20;;;10.90;80.80;;;;;;5096805;28;20024;-84
2023/01/15 01:58:53;;;;;;;1.85;1.30;;;10.90;80.80;;;;;;5072274;28;20039;-84
2023/01/15 02:01:21;;;;;;;2.55;1.30;;;10.90;80.90;;;;;;5075242;28;20031;-84
2023/01/15 02:03:47;;;;;;;1.30;1.20;;;10.90;80.90;;;;;;5060570;28;20020;-85
2023/01/15 02:06:14;;;;;;;2.42;1.38;;;10.90;80.90;;;;;;5083247;28;20020;-85
2023/01/15 02:08:41;;;;;;;1.83;1.17;;;10.90;80.90;;;;;;5064243;28;20036;-85
2023/01/15 02:11:11;;;;;;;1.95;1.10;;;10.90;80.90;;;;;;5078433;28;20493;-85
2023/01/15 02:13:40;;;;;;;1.60;1.23;;;10.90;80.80;;;;;;5081322;28;20023;-85
2023/01/15 02:16:31;;;;;;;2.90;1.30;;;10.80;80.80;;;;;;5092627;28;20044;-85
2023/01/15 02:19:20;;;;;;;2.70;1.35;;;10.80;80.90;;;;;;5057782;28;20028;-87
2023/01/15 02:21:58;;;;;;;2.45;1.42;;;10.80;80.80;;;;;;5071750;28;20049;-85
2023/01/15 02:24:56;;;;;;;1.38;1.20;;;10.80;80.80;;;;;;5076276;28;20024;-84
2023/01/15 02:27:24;;;;;;;1.55;1.33;;;10.80;80.90;;;;;;5032805;28;20032;-87
2023/01/15 02:30:01;;;;;;;2.72;1.48;;;10.80;80.80;;;;;;5053355;28;20016;-85
2023/01/15 02:32:44;;;;;;;1.33;1.13;;;10.80;80.90;;;;;;5074295;28;20084;-88
2023/01/15 02:35:29;;;;;;;2.38;1.23;;;10.70;80.80;;;;;;5068490;28;20028;-85
2023/01/15 02:37:58;;;;;;;2.83;1.20;;;10.70;80.80;;;;;;5083917;28;20024;-85
2023/01/15 02:40:27;;;;;;;2.80;1.30;;;10.70;80.80;;;;;;5083230;28;20028;-85
2023/01/15 02:42:54;;;;;;;1.73;1.10;;;10.70;80.80;;;;;;5065430;28;20036;-84
2023/01/15 02:45:25;;;;;;;1.77;1.35;;;10.70;80.80;;;;;;5093762;28;20041;-85
2023/01/15 02:47:55;;;;;;;1.10;1.00;;;10.70;80.90;;;;;;5090332;28;20020;-84
2023/01/15 02:50:31;;;;;;;3.85;1.50;;;10.60;80.80;;;;;;5082435;28;20024;-85
2023/01/15 02:53:04;;;;;;;1.63;1.20;;;10.60;80.90;;;;;;5078380;28;20024;-84
2023/01/15 02:55:41;;;;;;;2.08;1.30;;;10.70;80.80;;;;;;5077230;28;20024;-87
2023/01/15 02:58:11;;;;;;;2.40;1.25;;;10.60;80.80;;;;;;5085453;28;20380;-84
2023/01/15 03:00:42;;;;;;;2.08;1.23;;;10.60;80.80;;;;;;5081800;28;20376;-84
2023/01/15 03:03:35;;;;;;;1.95;1.20;;;10.60;80.80;;;;;;5058374;28;20024;-84
2023/01/15 03:06:42;;;;;;;2.30;1.50;;;10.60;80.80;;;;;;5075038;28;20035;-84
2023/01/15 03:09:10;;;;;;;1.55;1.13;;;10.60;80.80;;;;;;5079931;28;20084;-85
2023/01/15 03:11:43;;;;;;;2.25;1.30;;;10.60;80.70;;;;;;5039270;28;20764;-84
2023/01/15 03:14:27;;;;;;;1.65;1.45;;;10.50;80.70;;;;;;5070167;28;20043;-84
2023/01/15 03:17:00;;;;;;;1.70;1.40;;;10.50;80.80;;;;;;5088493;28;20044;-84
2023/01/15 03:19:28;;;;;;;2.25;1.40;;;10.50;80.80;;;;;;5105628;28;20046;-85
2023/01/15 03:22:14;;;;;;;3.67;1.40;;;10.50;80.80;;;;;;5080894;28;20084;-85
2023/01/15 03:24:46;;;;;;;2.08;1.50;;;10.50;80.80;;;;;;5082763;28;20016;-84
2023/01/15 03:27:12;;;;;;;1.33;1.23;;;10.50;80.80;;;;;;5071878;28;20042;-84
2023/01/15 03:29:46;;;;;;;2.05;1.27;;;10.50;80.80;;;;;;5078395;28;20028;-83
2023/01/15 03:32:14;;;;;;;2.35;1.20;;;10.40;80.80;;;;;;5091835;28;20036;-86
2023/01/15 03:34:47;;;;;;;1.70;1.08;;;10.40;80.70;;;;;;5070128;28;20036;-85
2023/01/15 03:37:18;;;;;;;2.42;1.10;;;10.50;80.80;;;;;;5071888;28;20024;-88
2023/01/15 03:39:44;;;;;;;2.58;1.20;;;10.40;80.70;;;;;;5068040;28;20036;-85
2023/01/15 03:42:26;;;;;;;1.63;1.25;;;10.40;80.70;;;;;;5074283;28;20020;-85
2023/01/15 03:44:58;;;;;;;1.65;1.27;;;10.40;80.70;;;;;;5071574;28;20024;-84
2023/01/15 03:47:46;;;;;;;2.03;1.20;;;10.40;80.70;;;;;;5085900;28;20028;-87
2023/01/15 03:50:25;;;;;;;1.58;1.40;;;10.40;80.70;;;;;;5071122;28;20634;-87
2023/01/15 03:53:09;;;;;;;1.77;1.15;;;10.30;80.70;;;;;;5063322;28;20036;-88
2023/01/15 03:56:12;;;;;;;1.40;1.10;;;10.30;80.70;;;;;;5072958;28;20417;-85
2023/01/15 03:58:50;;;;;;;1.77;1.40;;;10.30;80.70;;;;;;5077717;28;20020;-84
2023/01/15 04:01:28;;;;;;;1.65;1.10;;;10.30;80.70;;;;;;5081205;28;20047;-84
2023/01/15 04:03:56;;;;;;;2.13;1.17;;;10.30;80.70;;;;;;5090237;28;20024;-84
2023/01/15 04:06:28;;;;;;;1.27;1.17;;;10.30;80.70;;;;;;5062637;28;20034;-84
2023/01/15 04:08:55;;;;;;;2.17;1.38;;;10.30;80.80;;;;;;5068459;28;20024;-86
2023/01/15 04:11:26;;;;;;;1.30;1.20;;;10.20;80.80;;;;;;5077386;28;20446;-84
2023/01/15 04:13:56;;;;;;;1.30;1.15;;;10.20;80.80;;;;;;5065409;28;20419;-84
2023/01/15 04:16:33;;;;;;;1.98;1.40;;;10.20;80.80;;;;;;5055356;28;20131;-87
2023/01/15 04:18:59;;;;;;;1.80;1.40;;;10.20;80.80;;;;;;5072774;28;20027;-84
2023/01/15 04:21:26;;;;;;;1.38;1.20;;;10.20;80.80;;;;;;5037914;28;20032;-84
2023/01/15 04:23:52;;;;;;;1.58;1.20;;;10.20;80.80;;;;;;5052447;28;20113;-85
2023/01/15 04:26:18;;;;;;;1.80;1.10;;;10.20;80.80;;;;;;5070829;28;20090;-87
2023/01/15 04:28:43;;;;;;;2.97;1.40;;;10.20;80.80;;;;;;5041237;28;20032;-85
2023/01/15 04:31:09;;;;;;;1.52;1.30;;;10.20;80.70;;;;;;5055018;28;20535;-90
2023/01/15 04:33:35;;;;;;;1.48;1.23;;;10.20;80.80;;;;;;5055004;28;20396;-87
2023/01/15 04:36:02;;;;;;;1.77;1.27;;;10.20;80.80;;;;;;5062757;28;20043;-85
2023/01/15 04:38:28;;;;;;;2.88;1.10;;;10.10;80.70;;;;;;5072206;28;20028;-86
2023/01/15 04:46:23;;;;;;;3.47;1.40;;;10.10;80.70;;;;;;5093312;28;20024;-84
2023/01/15 04:48:49;;;;;;;1.83;1.40;;;10.10;80.70;;;;;;5075804;28;20024;-85
2023/01/15 04:51:16;;;;;;;2.15;1.30;;;10.10;80.70;;;;;;5071746;28;20043;-85
2023/01/15 04:53:41;;;;;;;3.55;1.40;;;10.10;80.70;;;;;;5076646;28;20107;-85
2023/01/15 04:56:07;;;;;;;1.83;1.13;;;10.10;80.80;;;;;;5097238;28;20576;-85
2023/01/15 04:58:34;;;;;;;2.20;1.40;;;10.00;80.70;;;;;;5074369;28;20030;-84
2023/01/15 05:01:00;;;;;;;2.10;1.40;;;10.00;80.80;;;;;;5086667;28;20058;-84
2023/01/15 05:03:28;;;;;;;2.63;1.35;;;10.00;80.80;;;;;;5073450;28;20028;-84
2023/01/15 05:05:53;;;;;;;1.40;1.30;;;10.00;80.80;;;;;;5090258;28;20036;-85
2023/01/15 05:08:19;;;;;;;1.85;1.15;;;10.00;80.80;;;;;;5082223;28;20756;-85
2023/01/15 05:10:45;;;;;;;1.30;1.20;;;10.00;80.80;;;;;;5095535;28;20035;-87
2023/01/15 05:13:11;;;;;;;1.35;1.10;;;10.00;80.80;;;;;;5058500;28;20476;-86
2023/01/15 05:15:39;;;;;;;1.85;1.35;;;10.00;80.80;;;;;;5060292;28;20016;-86
2023/01/15 05:18:05;;;;;;;2.08;1.27;;;9.90;80.80;;;;;;5050220;28;20055;-84
2023/01/15 05:20:34;;;;;;;2.65;1.40;;;9.90;80.80;;;;;;5048991;28;20355;-84
2023/01/15 05:23:00;;;;;;;1.85;1.45;;;10.00;80.80;;;;;;5060368;28;20072;-84
2023/01/15 05:25:26;;;;;;;1.88;1.40;;;9.90;80.80;;;;;;5048174;28;20032;-85
2023/01/15 05:27:52;;;;;;;1.98;1.45;;;9.90;80.80;;;;;;5077821;28;20119;-84
2023/01/15 05:30:24;;;;;;;2.45;1.33;;;9.90;80.80;;;;;;5058551;28;20107;-84
2023/01/15 05:32:52;;;;;;;1.50;1.33;;;9.90;80.80;;;;;;5088230;28;20047;-84
2023/01/15 05:35:18;;;;;;;2.00;1.20;;;9.90;80.80;;;;;;5096463;28;20028;-84
2023/01/15 05:37:43;;;;;;;3.05;1.30;;;9.90;80.80;;;;;;5080054;28;20024;-84
2023/01/15 05:40:10;;;;;;;2.30;1.33;;;9.80;80.80;;;;;;5070779;28;20020;-84
2023/01/15 05:42:35;;;;;;;2.72;1.33;;;9.90;80.80;;;;;;5062946;28;20024;-84
2023/01/15 05:45:01;;;;;;;1.60;1.50;;;9.90;80.80;;;;;;5052441;28;20027;-84
2023/01/15 05:47:27;;;;;;;2.40;1.40;;;9.80;80.80;;;;;;5066028;28;20028;-84
2023/01/15 05:49:53;;;;;;;1.42;1.20;;;9.80;80.80;;;;;;5056080;28;20105;-85
2023/01/15 05:52:18;;;;;;;1.58;1.30;;;9.80;80.70;;;;;;5059182;28;20081;-84
2023/01/15 05:54:44;;;;;;;2.53;1.50;;;9.80;80.80;;;;;;5059976;28;20023;-85
2023/01/15 05:57:11;;;;;;;2.47;1.20;;;9.80;80.80;;;;;;5077302;28;20027;-86
2023/01/15 05:59:38;;;;;;;1.58;1.33;;;9.80;80.80;;;;;;5093141;28;20012;-84
2023/01/15 06:02:04;;;;;;;1.77;1.20;;;9.80;80.80;;;;;;5067702;28;20044;-84
2023/01/15 06:04:30;;;;;;;3.60;1.40;;;9.70;80.80;;;;;;5082764;28;20019;-84
2023/01/15 06:06:57;;;;;;;2.30;1.20;;;9.80;80.80;;;;;;5078998;28;20028;-85
2023/01/15 06:09:26;;;;;;;2.20;1.30;;;9.70;80.80;;;;;;5065662;28;20578;-86
2023/01/15 06:11:52;;;;;;;2.70;1.25;;;9.70;80.80;;;;;;5092384;28;20027;-84
2023/01/15 06:14:19;;;;;;;2.35;1.42;;;9.70;80.80;;;;;;5068853;28;20032;-85
2023/01/15 06:16:45;;;;;;;4.22;1.45;;;9.70;80.70;;;;;;5083960;28;20041;-84
2023/01/15 06:19:11;;;;;;;2.35;1.38;;;9.70;80.80;;;;;;5083575;28;20062;-86
2023/01/15 06:21:37;;;;;;;2.53;1.38;;;9.70;80.80;;;;;;5059926;28;20039;-85
2023/01/15 06:24:03;;;;;;;2.42;1.30;;;9.70;80.80;;;;;;5055053;28;20033;-85
2023/01/15 06:26:29;;;;;;;2.00;1.30;;;9.70;80.80;;;;;;5060400;28;20088;-85
2023/01/15 06:28:55;;;;;;;2.80;1.38;;;9.60;80.70;;;;;;5055693;28;20115;-84
2023/01/15 06:31:22;;;;;;;1.58;1.10;;;9.60;80.80;;;;;;5073410;28;20103;-83
2023/01/15 06:33:49;;;;;;;3.58;1.50;;;9.60;81.40;;;;;;5069766;28;20507;-84
2023/01/15 06:36:20;;;;;;;3.50;1.48;;;9.60;80.80;;;;;;5066861;28;20461;-82
2023/01/15 06:38:46;;;;;;;2.17;1.30;;;9.60;80.80;;;;;;5077823;28;20020;-85
2023/01/15 06:47:21;;;;;;;2.42;1.33;;;9.50;81.30;;;;;;5089719;28;20368;-84
2023/01/15 06:49:53;;;;;;;1.27;1.17;;;9.50;80.70;;;;;;5072975;28;20522;-84
2023/01/15 06:52:19;;;;;;;2.50;1.33;;;9.50;80.80;;;;;;5093460;28;20024;-85
2023/01/15 06:54:45;;;;;;;1.50;1.23;;;9.50;80.90;;;;;;5069004;28;20028;-84
2023/01/15 06:57:11;;;;;;;2.83;1.15;;;9.50;80.90;;;;;;5069935;28;20032;-87
2023/01/15 06:59:37;;;;;;;1.58;1.23;;;9.40;80.80;;;;;;5092707;28;20396;-84
2023/01/15 07:02:03;;;;;;;2.40;1.30;;;9.40;80.80;;;;;;5051843;28;20040;-84
2023/01/15 07:04:28;;;;;;;2.33;1.25;;;9.50;80.90;;;;;;5068884;28;20414;-84
2023/01/15 07:06:55;;;;;;;2.10;1.67;;;9.40;80.80;;;;;;5059989;28;20040;-85
2023/01/15 07:09:20;;;;;;;1.63;1.45;;;9.40;80.80;;;;;;5058634;28;20060;-84
2023/01/15 07:11:49;;;;;;;1.23;1.13;;;9.40;80.80;;;;;;5089075;28;20024;-84
2023/01/15 07:14:16;;;;;;;3.97;1.42;;;9.40;80.80;;;;;;5066379;28;20135;-86
2023/01/15 07:16:42;;;;;;;1.95;1.40;;;9.40;80.80;;;;;;5070501;28;20051;-86
2023/01/15 07:19:08;;;;;;;1.40;1.30;;;9.40;80.80;;;;;;5059017;28;20032;-84
2023/01/15 07:21:34;;;;;;;1.95;1.17;;;9.40;80.80;;;;;;5069682;28;20023;-84
2023/01/15 07:24:00;;;;;;;1.90;1.20;;;9.40;80.80;;;;;;5051739;28;20524;-85
2023/01/15 07:26:26;;;;;;;3.15;1.60;;;9.40;81.50;;;;;;5056933;28;20035;-84
2023/01/15 07:28:52;;;;;;;1.05;1.00;;;9.30;80.80;;;;;;5069035;28;20028;-84
2023/01/15 07:31:18;;;;;;;1.52;1.35;;;9.30;80.70;;;;;;5087570;28;20036;-84
2023/01/15 07:33:44;;;;;;;2.47;1.40;;;9.40;80.80;;;;;;5098021;28;20064;-84
2023/01/15 07:36:10;;;;;;;1.77;1.20;;;9.30;80.80;;;;;;5066922;28;20432;-85
2023/01/15 07:38:35;;;;;;;3.33;1.48;;;9.30;80.80;;;;;;5079987;28;20038;-86
2023/01/15 07:52:00;;;;;;;2.50;1.50;;;9.30;80.80;;;;;;5070262;28;20048;-85
2023/01/15 07:54:26;;;;;;;1.58;1.30;;;9.30;80.80;;;;;;5086284;28;20781;-84
2023/01/15 07:56:52;;;;;;;1.25;1.10;;;9.20;80.80;;;;;;5078398;28;20130;-84
2023/01/15 07:59:19;;;;;;;1.88;1.38;;;9.20;80.90;;;;;;5068377;28;20032;-84
2023/01/15 08:01:45;;;;;;;1.60;1.50;;;9.20;80.80;;;;;;5086161;28;20377;-84
2023/01/15 08:04:10;;;;;;;3.97;1.27;;;9.20;80.80;;;;;;5078038;28;20028;-85
2023/01/15 08:06:36;;;;;;;2.22;1.40;;;9.20;80.70;;;;;;5069628;28;20028;-84
2023/01/15 08:09:03;;;;;;;1.73;1.35;;;9.20;80.80;;;;;;5087167;28;20415;-85
2023/01/15 08:17:04;;;;;;;1.30;1.20;;;9.20;80.70;;;;;;5090532;28;20110;-85
2023/01/15 08:19:30;;;;;;;1.88;1.30;;;9.20;80.70;;;;;;5084675;28;20469;-84
2023/01/15 08:21:56;;;;;;;1.85;1.25;;;9.20;80.70;;;;;;5083424;28;20031;-85
2023/01/15 08:24:23;;;;;;;3.40;1.60;;;9.10;80.70;;;;;;5064128;28;20032;-86
2023/01/15 08:26:49;;;;;;;2.70;1.40;;;9.10;80.70;;;;;;5068033;28;20028;-87
2023/01/15 08:29:14;;;;;;;2.30;1.58;;;9.10;80.70;;;;;;5065457;28;20479;-84
2023/01/15 08:31:40;;;;;;;2.10;1.20;;;9.10;80.70;;;;;;5063487;28;20044;-86
2023/01/15 08:34:07;;;;;;;1.60;1.30;;;9.10;80.60;;;;;;5078440;28;20043;-86
2023/01/15 08:36:33;;;;;;;3.17;1.38;;;9.10;80.70;;;;;;5075308;28;20020;-84
2023/01/15 08:38:59;;;;;;;2.20;1.20;;;9.10;80.70;;;;;;5068360;28;20025;-86
2023/01/15 08:41:24;;;;;;;2.45;1.50;;;9.10;80.70;;;;;;5059114;28;20040;-87
2023/01/15 08:43:50;;;;;;;2.58;1.40;;;9.10;80.70;;;;;;5062851;28;20040;-82
2023/01/15 08:46:16;;;;;;;1.23;1.10;;;9.00;80.60;;;;;;5094775;28;20112;-86
2023/01/15 08:48:43;;;;;;;3.08;1.77;;;9.00;80.70;;;;;;5095027;28;20017;-88
2023/01/15 08:51:10;;;;;;;3.75;1.40;;;9.00;80.70;;;;;;5078559;28;20237;-80
2023/01/15 08:53:37;;;;;;;1.45;1.30;;;9.00;80.70;;;;;;5059344;28;20419;-84
2023/01/15 08:56:03;;;;;;;2.63;1.50;;;9.00;80.70;;;;;;5076728;28;20029;-84
2023/01/15 08:58:31;;;;;;;1.90;1.45;;;9.00;80.70;;;;;;5063274;28;20028;-82
2023/01/15 09:01:08;;;;;;;3.00;1.33;;;9.00;80.70;;;;;;5075059;28;20081;-84
2023/01/15 09:03:34;;;;;;;2.70;1.20;;;9.00;80.70;;;;;;5077179;28;20073;-83
2023/01/15 09:06:01;;;;;;;2.15;1.20;;;9.00;80.60;;;;;;5073399;28;20020;-83
2023/01/15 09:08:28;;;;;;;1.50;1.30;;;9.00;80.60;;;;;;5062635;28;20025;-83
2023/01/15 09:10:58;;;;;;;1.70;1.20;;;9.00;80.60;;;;;;5059541;28;20385;-85
2023/01/15 09:13:24;;;;;;;2.20;1.60;;;9.00;80.60;;;;;;5075430;28;20032;-87
2023/01/15 09:15:50;;;;;;;3.08;1.38;;;9.00;80.60;;;;;;5061379;28;20086;-82
2023/01/15 09:18:19;;;;;;;1.38;1.23;;;9.00;80.60;;;;;;5059175;28;20100;-82
2023/01/15 09:20:48;;;;;;;1.33;1.23;;;9.00;80.60;;;;;;5088520;28;20035;-81
2023/01/15 09:23:15;;;;;;;3.25;1.40;;;9.00;80.60;;;;;;5071789;28;20365;-82
2023/01/15 09:25:49;;;;;;;1.40;1.30;;;9.00;80.60;;;;;;5073794;28;20040;-83
2023/01/15 09:28:15;;;;;;;2.42;1.48;;;9.00;80.60;;;;;;5078004;28;20020;-84
2023/01/15 09:30:41;;;;;;;2.85;1.33;;;9.00;80.60;;;;;;5072925;28;20051;-82
2023/01/15 09:33:07;;;;;;;2.08;1.30;;;9.00;80.60;;;;;;5068955;28;20037;-83
2023/01/15 09:35:33;;;;;;;1.58;1.45;;;8.90;80.50;;;;;;5071616;28;20036;-82
2023/01/15 09:37:58;;;;;;;2.25;1.50;;;9.00;80.60;;;;;;5056596;28;20496;-82
2023/01/15 09:40:40;;;;;;;2.20;1.40;;;9.00;80.60;;;;;;5093053;28;20085;-82
2023/01/15 09:43:15;;;;;;;3.47;1.45;;;9.00;80.60;;;;;;5076432;28;20020;-84
2023/01/15 09:45:51;;;;;;;1.90;1.30;;;9.00;80.60;;;;;;5059286;28;20028;-81
2023/01/15 09:48:32;;;;;;;3.20;1.48;;;9.00;80.50;;;;;;5078302;28;20016;-83
2023/01/15 09:51:21;;;;;;;2.90;1.50;;;9.00;80.60;;;;;;5063856;28;20032;-84
2023/01/15 09:54:04;;;;;;;2.10;1.20;;;9.00;80.60;;;;;;5090273;28;20035;-85
2023/01/15 09:56:32;;;;;;;4.63;1.50;;;9.00;80.60;;;;;;5071414;28;20051;-85
2023/01/15 09:59:03;;;;;;;1.75;1.40;;;9.00;80.60;;;;;;5066465;28;20086;-85
2023/01/15 10:01:31;;;;;;;3.05;1.63;;;9.00;80.50;;;;;;5074295;28;20076;-85
2023/01/15 10:04:13;;;;;;;2.20;1.40;;;9.00;80.50;;;;;;5083826;28;20024;-86
2023/01/15 10:06:55;;;;;;;2.25;1.20;;;9.00;80.60;;;;;;5065269;28;20055;-86
2023/01/15 10:09:30;;;;;;;1.77;1.20;;;9.00;80.60;;;;;;5071210;28;20040;-84
2023/01/15 10:15:03;;;;;;;3.65;1.40;;;9.00;80.50;;;;;;5094745;28;20035;-85
2023/01/15 10:17:40;;;;;;;1.60;1.15;;;9.00;80.50;;;;;;5089037;28;20136;-84
2023/01/15 10:20:16;;;;;;;2.38;1.40;;;9.00;80.60;;;;;;5095136;28;20123;-85
2023/01/15 10:23:03;;;;;;;1.30;1.20;;;9.00;80.60;;;;;;5079134;28;20031;-85
2023/01/15 10:25:42;;;;;;;2.97;1.58;;;9.00;80.60;;;;;;5076925;28;20106;-85
2023/01/15 10:28:19;;;;;;;2.38;1.30;;;9.00;80.50;;;;;;5088490;28;20028;-85
2023/01/15 10:30:50;;;;;;;1.77;1.50;;;9.00;80.50;;;;;;5082966;28;20123;-84
2023/01/15 10:33:29;;;;;;;2.10;1.42;;;9.10;81.20;;;;;;5103481;28;20042;-84
2023/01/15 10:36:04;;;;;;;2.70;1.52;;;9.00;80.60;;;;;;5071142;28;20028;-84
2023/01/15 10:38:30;;;;;;;1.85;1.20;;;9.00;80.60;;;;;;5078679;28;20077;-85
2023/01/15 10:41:22;;;;;;;3.05;1.20;;;9.10;80.60;;;;;;5075090;28;20039;-84
2023/01/15 10:44:42;;;;;;;2.25;1.45;;;9.00;80.60;;;;;;5079579;28;20465;-83
2023/01/15 10:47:14;;;;;;;4.03;1.95;;;9.10;80.70;;;;;;5020480;28;20107;-83
2023/01/15 10:49:41;;;;;;;2.17;1.23;;;9.10;80.50;;;;;;5071171;28;20075;-86
2023/01/15 10:52:15;;;;;;;2.63;1.50;;;9.10;80.50;;;;;;5062111;28;20042;-85
2023/01/15 10:54:47;;;;;;;3.63;1.60;;;9.10;80.50;;;;;;5088259;28;20044;-84
2023/01/15 10:57:45;;;;;;;1.48;1.15;;;9.10;80.50;;;;;;5082234;28;20461;-84
2023/01/15 11:00:11;;;;;;;1.40;1.30;;;9.10;80.60;;;;;;5038254;28;20032;-85
2023/01/15 11:02:39;;;;;;;1.58;1.20;;;9.10;80.40;;;;;;5079122;28;20392;-84
2023/01/15 11:05:10;;;;;;;2.35;1.23;;;9.10;80.50;;;;;;5081817;28;20057;-85
2023/01/15 11:07:40;;;;;;;1.42;1.33;;;9.10;80.60;;;;;;5072422;28;20033;-85
2023/01/15 11:10:14;;;;;;;2.40;1.33;;;9.10;80.60;;;;;;5085055;28;20111;-85
2023/01/15 11:21:20;;;;;;;1.98;1.30;;;9.20;80.60;;;;;;5076203;28;20028;-85
2023/01/15 11:23:46;;;;;;;3.10;1.40;;;9.20;80.60;;;;;;5097207;28;20047;-84
2023/01/15 11:26:23;;;;;;;3.78;1.40;;;9.20;80.60;;;;;;5101024;28;20043;-86
2023/01/15 11:28:49;;;;;;;2.05;1.30;;;9.20;80.60;;;;;;5078549;28;20046;-86
2023/01/15 11:31:15;;;;;;;2.33;1.50;;;9.20;80.60;;;;;;5078033;28;20481;-84
2023/01/15 11:34:02;;;;;;;2.17;1.35;;;9.30;81.20;;;;;;5071188;28;20059;-85
2023/01/15 11:36:29;;;;;;;2.35;1.35;;;9.30;80.70;;;;;;5082742;28;20077;-84
2023/01/15 11:38:55;;;;;;;1.70;1.40;;;9.30;80.60;;;;;;5067024;28;20020;-85
2023/01/15 11:52:54;;;;;;;2.67;1.35;;;9.40;80.50;;;;;;5056576;28;20063;-88
2023/01/15 11:55:26;;;;;;;2.15;1.30;;;9.40;80.50;;;;;;5094019;28;20027;-82
2023/01/15 11:57:54;;;;;;;1.35;1.20;;;9.40;80.60;;;;;;5066675;28;20174;-86
2023/01/15 12:00:45;;;;;;;3.55;1.70;;;9.40;80.60;;;;;;5084416;28;20024;-86
2023/01/15 12:03:19;;;;;;;1.50;1.40;;;9.50;80.60;;;;;;5078394;28;20465;-85
2023/01/15 12:05:52;;;;;;;1.75;1.20;;;9.50;80.50;;;;;;5062162;28;20020;-84
2023/01/15 12:08:46;;;;;;;2.53;1.42;;;9.50;80.50;;;;;;5063352;28;20085;-85
2023/01/15 12:11:34;;;;;;;1.30;1.20;;;9.50;80.50;;;;;;5078931;28;20119;-85
2023/01/15 12:14:21;;;;;;;1.70;1.48;;;9.50;80.40;;;;;;5091964;28;20539;-84
2023/01/15 12:17:29;;;;;;;3.15;1.38;;;9.50;80.40;;;;;;5076211;28;20036;-86
2023/01/15 12:20:07;;;;;;;2.05;1.30;;;9.50;80.40;;;;;;5098198;28;20032;-84
2023/01/15 12:22:38;;;;;;;2.78;1.40;;;9.60;80.40;;;;;;5081303;28;20051;-85
2023/01/15 12:25:39;;;;;;;1.55;1.45;;;9.50;80.30;;;;;;5060170;28;20028;-84
2023/01/15 12:28:39;;;;;;;2.25;1.40;;;9.60;80.50;;;;;;5077358;28;20028;-84
2023/01/15 12:31:21;;;;;;;2.70;1.48;;;9.60;80.40;;;;;;5056463;28;20028;-85
2023/01/15 12:33:59;;;;;;;1.58;1.48;;;9.60;80.40;;;;;;5060448;28;20114;-84
2023/01/15 12:36:42;;;;;;;2.38;1.27;;;9.60;80.40;;;;;;5071988;28;20457;-84
2023/01/15 12:39:53;;;;;;;1.30;1.25;;;9.70;80.50;;;;;;5057306;28;20492;-86
2023/01/15 12:45:11;;;;;;;2.00;1.23;;;9.70;80.40;;;;;;5069563;28;20039;-86
2023/01/15 12:47:52;;;;;;;1.77;1.40;;;9.70;80.40;;;;;;5051760;28;20476;-84
2023/01/15 12:50:20;;;;;;;2.78;1.30;;;9.70;80.40;;;;;;5069326;28;20052;-84
2023/01/15 12:52:53;;;;;;;1.52;1.20;;;9.70;80.30;;;;;;5067674;28;20043;-84
2023/01/15 12:55:22;;;;;;;1.42;1.33;;;9.80;80.30;;;;;;5070800;28;20073;-84
2023/01/15 12:57:55;;;;;;;1.98;1.10;;;9.80;80.30;;;;;;5052031;28;20016;-84
2023/01/15 13:00:22;;;;;;;2.97;1.42;;;9.80;80.30;;;;;;5068459;28;20077;-85
2023/01/15 13:02:56;;;;;;;1.75;1.33;;;9.80;80.20;;;;;;5049996;28;20032;-85
2023/01/15 13:05:30;;;;;;;2.17;1.40;;;9.90;80.30;;;;;;5084586;28;20042;-85
2023/01/15 13:08:22;;;;;;;2.22;1.30;;;9.90;80.20;;;;;;5052628;28;20024;-87
2023/01/15 13:10:52;;;;;;;1.30;1.20;;;9.90;80.20;;;;;;5059283;28;20024;-85
2023/01/15 13:13:24;;;;;;;2.38;1.20;;;9.90;80.10;;;;;;5076157;28;20059;-86
2023/01/15 13:16:04;;;;;;;1.60;1.45;;;10.00;80.10;;;;;;5089926;28;20077;-86
2023/01/15 13:18:58;;;;;;;1.38;1.27;;;10.00;80.10;;;;;;5067768;28;20048;-81
2023/01/15 13:21:33;;;;;;;1.17;1.17;;;10.00;80.00;;;;;;5085347;28;20112;-90
2023/01/15 13:24:19;;;;;;;1.60;1.40;;;10.00;80.00;;;;;;5055690;28;20028;-78
2023/01/15 13:26:57;;;;;;;1.35;1.10;;;10.00;80.10;;;;;;5030043;28;20155;-86
2023/01/15 13:29:47;;;;;;;1.42;1.30;;;10.00;80.10;;;;;;5080437;28;20465;-87
2023/01/15 13:32:22;;;;;;;2.15;1.20;;;10.00;80.10;;;;;;5073945;28;20085;-82
2023/01/15 13:35:07;;;;;;;1.70;1.58;;;10.00;80.10;;;;;;5067653;28;20056;-83
2023/01/15 13:37:53;;;;;;;2.53;1.30;;;10.00;80.10;;;;;;5069782;28;20024;-84
2023/01/15 13:40:43;;;;;;;1.65;1.50;;;10.00;80.10;;;;;;5073910;28;20036;-82
2023/01/15 13:43:30;;;;;;;2.00;1.30;;;10.00;80.10;;;;;;5066345;28;20054;-81
2023/01/15 13:45:56;;;;;;;2.13;1.38;;;10.10;80.10;;;;;;5074701;28;20616;-82
2023/01/15 13:48:33;;;;;;;2.85;1.50;;;10.10;80.10;;;;;;5070650;28;20985;-80
2023/01/15 13:51:03;;;;;;;2.25;1.35;;;10.00;80.10;;;;;;5072372;28;20057;-86
2023/01/15 13:53:34;;;;;;;1.55;1.23;;;10.10;80.10;;;;;;5052623;28;20370;-80
2023/01/15 13:56:13;;;;;;;3.03;1.45;;;10.10;80.10;;;;;;5083324;28;20361;-85
2023/01/15 13:58:53;;;;;;;2.70;1.38;;;10.10;80.10;;;;;;5077025;28;20024;-82
2023/01/15 14:01:19;;;;;;;1.25;1.20;;;10.10;80.10;;;;;;5075552;28;20020;-79
2023/01/15 14:04:11;;;;;;;2.20;1.35;;;10.10;80.00;;;;;;5070879;28;20073;-81
2023/01/15 14:06:45;;;;;;;1.42;1.33;;;10.10;80.10;;;;;;5053331;28;20028;-82
2023/01/15 14:09:13;;;;;;;1.55;1.30;;;10.10;80.00;;;;;;5072526;28;20062;-87
2023/01/15 14:12:06;;;;;;;2.20;1.40;;;10.10;80.00;;;;;;5074224;28;20048;-81